Time;durP1;ratioP1;P1;durP2;ratioP2;P2;SDS_P1;SDS_P2;PMS_P1;PMS_P2;Temp;Humidity;BMP_temperature;BMP_pressure;BME280_temperature;BME280_humidity;BME280_pressure;Samples;Min_cycle;Max_cycle;Signal;HPM_P1;HPM_P2
2022/05/24 00:02:05;;;;;;;22.73;13.60;;;;;;;;;;5078115;28;20322;-72
2022/05/24 00:04:32;;;;;;;23.52;14.63;;;;;;;;;;5075294;28;20140;-74
2022/05/24 00:06:58;;;;;;;30.17;15.48;;;;;;;;;;5076736;28;20083;-72
2022/05/24 00:09:25;;;;;;;29.55;15.75;;;;;;;;;;5079058;28;20049;-73
2022/05/24 00:11:52;;;;;;;26.75;15.50;;;;;;;;;;5085066;28;20056;-74
2022/05/24 00:15:19;;;;;;;28.65;16.08;;;;;;;;;;5069391;28;20057;-75
2022/05/24 00:17:05;;;;;;;27.15;16.55;;;;;;;;;;5085642;28;20049;-72
2022/05/24 00:19:32;;;;;;;29.38;16.15;;;;;;;;;;5084961;28;20048;-74
2022/05/24 00:21:59;;;;;;;24.70;16.10;;;;;;;;;;5077881;28;20432;-74
2022/05/24 00:24:25;;;;;;;25.90;16.02;;;;;;;;;;5085096;28;20067;-74
2022/05/24 00:26:51;;;;;;;29.77;17.10;;;;;;;;;;5074821;28;20059;-73
2022/05/24 00:29:18;;;;;;;28.23;16.90;;;;;;;;;;5066648;28;20515;-74
2022/05/24 00:31:44;;;;;;;31.80;18.17;;;;;;;;;;5089110;28;20052;-73
2022/05/24 00:34:10;;;;;;;32.95;18.77;;;;;;;;;;5074332;28;20064;-74
2022/05/24 00:36:37;;;;;;;30.23;18.00;;;;;;;;;;5077539;28;20058;-74
2022/05/24 00:39:03;;;;;;;31.00;18.65;;;;;;;;;;5086388;28;20053;-74
2022/05/24 00:41:36;;;;;;;32.95;18.48;;;;;;;;;;5067763;28;20095;-72
2022/05/24 00:44:04;;;;;;;30.33;19.25;;;;;;;;;;5082586;28;20419;-73
2022/05/24 00:46:43;;;;;;;34.42;18.58;;;;;;;;;;5075315;28;20055;-74
2022/05/24 00:49:14;;;;;;;33.13;19.75;;;;;;;;;;5084395;28;20139;-74
2022/05/24 00:51:47;;;;;;;33.88;18.10;;;;;;;;;;5077024;28;20091;-72
2022/05/24 00:54:13;;;;;;;33.42;19.35;;;;;;;;;;5080610;28;20057;-74
2022/05/24 00:56:58;;;;;;;35.13;19.23;;;;;;;;;;5059963;28;20049;-74
2022/05/24 00:59:31;;;;;;;33.70;18.17;;;;;;;;;;5081308;28;20634;-74
2022/05/24 01:01:57;;;;;;;28.90;19.00;;;;;;;;;;5076497;28;20045;-73
2022/05/24 01:04:24;;;;;;;34.13;17.98;;;;;;;;;;5084084;28;20045;-72
2022/05/24 01:06:50;;;;;;;34.60;18.70;;;;;;;;;;5082423;28;20055;-74
2022/05/24 01:09:23;;;;;;;35.28;18.92;;;;;;;;;;5076922;28;20570;-72
2022/05/24 01:11:52;;;;;;;34.67;19.80;;;;;;;;;;5077037;28;20148;-74
2022/05/24 01:14:20;;;;;;;35.38;18.98;;;;;;;;;;5084427;28;20153;-74
2022/05/24 01:16:46;;;;;;;34.78;18.42;;;;;;;;;;5084691;28;20053;-74
2022/05/24 01:19:35;;;;;;;31.45;18.38;;;;;;;;;;5078913;28;20063;-74
2022/05/24 01:22:17;;;;;;;34.40;18.83;;;;;;;;;;5077663;28;20497;-74
2022/05/24 01:24:47;;;;;;;34.30;18.52;;;;;;;;;;5085284;28;20535;-75
2022/05/24 01:27:14;;;;;;;29.02;16.75;;;;;;;;;;5079570;28;20262;-74
2022/05/24 01:29:40;;;;;;;30.10;17.10;;;;;;;;;;5077615;28;20152;-73
2022/05/24 01:37:37;;;;;;;33.58;15.57;;;;;;;;;;5076281;28;20747;-74
2022/05/24 01:40:04;;;;;;;27.17;15.60;;;;;;;;;;5059205;28;20496;-72
2022/05/24 01:42:30;;;;;;;29.70;16.40;;;;;;;;;;5083857;28;20084;-74
2022/05/24 01:44:59;;;;;;;29.60;16.08;;;;;;;;;;5076249;28;20177;-73
2022/05/24 01:47:26;;;;;;;24.23;13.45;;;;;;;;;;5076393;28;20748;-71
2022/05/24 01:49:56;;;;;;;24.67;12.98;;;;;;;;;;5085121;28;20140;-73
2022/05/24 01:52:25;;;;;;;28.63;12.57;;;;;;;;;;5084596;28;20052;-72
2022/05/24 01:54:54;;;;;;;25.90;13.15;;;;;;;;;;5080518;28;20127;-72
2022/05/24 01:57:25;;;;;;;18.75;10.57;;;;;;;;;;5074894;28;20059;-73
2022/05/24 01:59:52;;;;;;;19.75;9.82;;;;;;;;;;5084195;28;20340;-73
2022/05/24 02:02:18;;;;;;;20.30;9.65;;;;;;;;;;5083743;28;20052;-73
2022/05/24 02:04:45;;;;;;;18.77;9.65;;;;;;;;;;5083884;28;20155;-72
2022/05/24 02:07:14;;;;;;;18.67;9.35;;;;;;;;;;5072712;28;20088;-73
2022/05/24 02:09:49;;;;;;;20.85;10.18;;;;;;;;;;5084373;28;20576;-73
2022/05/24 02:12:32;;;;;;;18.95;9.10;;;;;;;;;;5066661;28;20582;-74
2022/05/24 02:15:10;;;;;;;21.75;8.57;;;;;;;;;;5062636;28;20190;-75
2022/05/24 02:17:42;;;;;;;21.52;10.07;;;;;;;;;;5060374;28;20044;-72
2022/05/24 02:20:10;;;;;;;20.27;9.00;;;;;;;;;;5082742;28;20052;-74
2022/05/24 02:22:36;;;;;;;20.40;8.95;;;;;;;;;;5059077;28;20056;-72
2022/05/24 02:25:23;;;;;;;15.90;9.15;;;;;;;;;;5078409;28;20037;-74
2022/05/24 02:27:49;;;;;;;20.75;9.40;;;;;;;;;;5073959;28;20045;-72
2022/05/24 02:30:20;;;;;;;18.48;9.02;;;;;;;;;;5073564;28;20056;-73
2022/05/24 02:32:47;;;;;;;21.75;10.10;;;;;;;;;;5084364;28;20048;-72
2022/05/24 02:35:13;;;;;;;19.58;8.93;;;;;;;;;;5077243;28;20059;-74
2022/05/24 02:37:40;;;;;;;23.17;8.65;;;;;;;;;;5078884;28;20600;-75
2022/05/24 02:42:51;;;;;;;19.92;9.07;;;;;;;;;;5082125;28;20051;-75
2022/05/24 02:45:17;;;;;;;19.55;8.57;;;;;;;;;;5072102;28;20064;-72
2022/05/24 02:47:44;;;;;;;20.20;8.48;;;;;;;;;;5065404;28;20055;-74
2022/05/24 02:50:11;;;;;;;20.50;9.18;;;;;;;;;;5081938;28;20527;-74
2022/05/24 02:52:39;;;;;;;21.17;9.55;;;;;;;;;;5081097;28;20103;-73
2022/05/24 02:55:07;;;;;;;18.90;9.82;;;;;;;;;;5079979;28;20929;-72
2022/05/24 02:57:33;;;;;;;21.27;9.10;;;;;;;;;;5074197;28;20045;-74
2022/05/24 02:59:59;;;;;;;16.27;9.20;;;;;;;;;;5083077;28;20209;-73
2022/05/24 03:02:26;;;;;;;18.23;9.20;;;;;;;;;;5073957;28;20057;-73
2022/05/24 03:04:52;;;;;;;24.15;9.85;;;;;;;;;;5074651;28;20135;-73
2022/05/24 03:10:04;;;;;;;20.30;9.93;;;;;;;;;;5083788;28;20311;-74
2022/05/24 03:15:16;;;;;;;24.17;10.20;;;;;;;;;;5075557;28;20132;-72
2022/05/24 03:17:42;;;;;;;21.95;9.93;;;;;;;;;;5080445;28;20155;-74
2022/05/24 03:20:09;;;;;;;19.92;9.68;;;;;;;;;;5082555;28;20063;-72
2022/05/24 03:22:35;;;;;;;20.65;10.40;;;;;;;;;;5082922;28;20149;-73
2022/05/24 03:25:01;;;;;;;23.15;10.82;;;;;;;;;;5076443;28;20056;-74
2022/05/24 03:27:27;;;;;;;19.92;10.35;;;;;;;;;;5059067;28;20493;-74
2022/05/24 03:29:54;;;;;;;21.52;10.75;;;;;;;;;;5064167;28;20052;-74
2022/05/24 03:32:20;;;;;;;27.48;10.82;;;;;;;;;;5082701;28;20124;-73
2022/05/24 03:34:47;;;;;;;22.80;10.82;;;;;;;;;;5062071;28;20492;-74
2022/05/24 03:37:14;;;;;;;19.77;10.57;;;;;;;;;;5073977;28;20056;-74
2022/05/24 03:39:41;;;;;;;25.90;11.43;;;;;;;;;;5064165;28;20057;-74
2022/05/24 03:42:07;;;;;;;19.02;10.63;;;;;;;;;;5075391;28;20207;-74
2022/05/24 03:44:34;;;;;;;19.90;9.95;;;;;;;;;;5061549;28;20145;-74
2022/05/24 03:47:00;;;;;;;21.05;10.25;;;;;;;;;;5056518;28;20119;-74
2022/05/24 03:49:26;;;;;;;20.38;9.85;;;;;;;;;;5063964;28;20087;-74
2022/05/24 03:51:53;;;;;;;20.10;9.05;;;;;;;;;;5064470;28;20135;-74
2022/05/24 03:54:19;;;;;;;17.40;9.27;;;;;;;;;;5060772;28;20094;-75
2022/05/24 03:58:00;;;;;;;20.45;9.65;;;;;;;;;;5060725;28;20487;-73
2022/05/24 03:59:32;;;;;;;16.65;8.68;;;;;;;;;;5081697;28;20060;-72
2022/05/24 04:01:58;;;;;;;18.20;8.20;;;;;;;;;;5079411;28;20222;-71
2022/05/24 04:04:25;;;;;;;19.15;9.02;;;;;;;;;;5080666;28;20352;-73
2022/05/24 04:06:51;;;;;;;19.52;8.13;;;;;;;;;;5076653;28;20192;-74
2022/05/24 04:09:18;;;;;;;19.10;8.75;;;;;;;;;;5063923;28;20048;-74
2022/05/24 04:11:44;;;;;;;15.50;8.32;;;;;;;;;;5081249;28;20052;-73
2022/05/24 04:14:10;;;;;;;19.23;8.68;;;;;;;;;;5058342;28;20603;-74
2022/05/24 04:16:37;;;;;;;21.35;8.95;;;;;;;;;;5078637;28;20493;-72
2022/05/24 04:19:03;;;;;;;18.92;8.32;;;;;;;;;;5082116;28;20053;-74
2022/05/24 04:21:29;;;;;;;15.90;8.02;;;;;;;;;;5081831;28;20061;-72
2022/05/24 04:23:56;;;;;;;20.30;8.27;;;;;;;;;;5077370;28;20053;-73
2022/05/24 04:26:22;;;;;;;18.13;8.63;;;;;;;;;;5071654;28;20059;-73
2022/05/24 04:28:48;;;;;;;20.48;7.18;;;;;;;;;;5077946;28;20060;-74
2022/05/24 04:31:15;;;;;;;18.48;7.78;;;;;;;;;;5040712;28;20132;-74
2022/05/24 04:33:41;;;;;;;16.63;8.63;;;;;;;;;;5080061;28;20106;-74
2022/05/24 04:36:08;;;;;;;19.58;8.13;;;;;;;;;;5044672;28;20119;-74
2022/05/24 04:38:34;;;;;;;18.58;8.00;;;;;;;;;;5051252;28;20166;-72
2022/05/24 04:43:45;;;;;;;24.52;8.55;;;;;;;;;;5080388;28;20052;-73
2022/05/24 04:46:12;;;;;;;18.52;7.97;;;;;;;;;;5073891;28;20052;-74
2022/05/24 04:48:39;;;;;;;17.33;8.13;;;;;;;;;;5077308;28;20122;-74
2022/05/24 04:51:06;;;;;;;18.52;8.05;;;;;;;;;;5053968;28;20572;-73
2022/05/24 04:53:32;;;;;;;18.05;8.07;;;;;;;;;;5079056;28;20856;-74
2022/05/24 04:55:58;;;;;;;22.05;8.55;;;;;;;;;;5063921;28;20056;-74
2022/05/24 04:58:24;;;;;;;20.70;9.02;;;;;;;;;;5067946;28;20139;-73
2022/05/24 05:00:51;;;;;;;19.77;9.20;;;;;;;;;;5079041;28;20526;-75
2022/05/24 05:03:19;;;;;;;21.13;9.20;;;;;;;;;;5083196;28;20057;-73
2022/05/24 05:05:46;;;;;;;24.48;9.35;;;;;;;;;;5084400;28;20041;-73
2022/05/24 05:08:12;;;;;;;17.63;8.77;;;;;;;;;;5083435;28;20052;-74
2022/05/24 05:10:39;;;;;;;18.23;8.93;;;;;;;;;;5075987;28;20052;-73
2022/05/24 05:13:06;;;;;;;16.45;9.10;;;;;;;;;;5085519;28;20059;-72
2022/05/24 05:15:34;;;;;;;19.50;9.35;;;;;;;;;;5084006;28;20080;-74
2022/05/24 05:18:05;;;;;;;16.52;9.25;;;;;;;;;;5083756;28;20511;-74
2022/05/24 05:20:32;;;;;;;22.67;9.93;;;;;;;;;;5076452;28;20143;-74
2022/05/24 05:22:58;;;;;;;22.80;9.60;;;;;;;;;;5065852;28;20075;-74
2022/05/24 05:25:24;;;;;;;22.45;9.93;;;;;;;;;;5073262;28;20060;-74
2022/05/24 05:27:51;;;;;;;19.27;9.55;;;;;;;;;;5075169;28;20195;-72
2022/05/24 05:33:02;;;;;;;19.02;9.25;;;;;;;;;;5081675;28;20147;-72
2022/05/24 05:35:29;;;;;;;17.73;9.07;;;;;;;;;;5082832;28;20587;-74
2022/05/24 05:37:55;;;;;;;15.30;8.13;;;;;;;;;;5071838;28;20130;-72
2022/05/24 05:40:21;;;;;;;17.50;8.07;;;;;;;;;;5074924;28;20090;-72
2022/05/24 05:42:48;;;;;;;15.88;7.68;;;;;;;;;;5076685;28;20107;-74
2022/05/24 05:45:15;;;;;;;17.40;7.68;;;;;;;;;;5075135;28;20063;-73
2022/05/24 05:47:41;;;;;;;15.90;6.85;;;;;;;;;;5076981;28;20053;-73
2022/05/24 05:50:08;;;;;;;14.75;7.20;;;;;;;;;;5082734;28;20289;-72
2022/05/24 05:52:34;;;;;;;18.55;6.78;;;;;;;;;;5083071;28;20124;-73
2022/05/24 05:55:01;;;;;;;16.27;7.72;;;;;;;;;;5081375;28;20139;-74
2022/05/24 05:57:27;;;;;;;18.80;7.82;;;;;;;;;;5078864;28;20923;-74
2022/05/24 05:59:53;;;;;;;14.80;7.43;;;;;;;;;;5084011;28;20102;-75
2022/05/24 06:02:20;;;;;;;13.82;6.30;;;;;;;;;;5062053;28;20060;-75
2022/05/24 06:04:46;;;;;;;15.60;7.80;;;;;;;;;;5084608;28;20091;-74
2022/05/24 06:07:13;;;;;;;16.85;6.85;;;;;;;;;;5066570;28;20497;-75
2022/05/24 06:09:40;;;;;;;14.90;6.97;;;;;;;;;;5081034;28;20613;-74
2022/05/24 06:12:06;;;;;;;15.68;6.80;;;;;;;;;;5085113;28;20088;-75
2022/05/24 06:14:33;;;;;;;13.43;6.68;;;;;;;;;;5063186;28;20053;-75
2022/05/24 06:17:19;;;;;;;14.10;7.10;;;;;;;;;;5077909;28;20562;-74
2022/05/24 06:19:45;;;;;;;12.95;6.60;;;;;;;;;;5072702;28;20955;-75
2022/05/24 06:22:12;;;;;;;14.10;6.47;;;;;;;;;;5061922;28;20103;-73
2022/05/24 06:24:38;;;;;;;14.23;7.15;;;;;;;;;;5081861;28;20059;-74
2022/05/24 06:27:05;;;;;;;14.25;6.82;;;;;;;;;;5082111;28;20139;-74
2022/05/24 06:29:32;;;;;;;14.27;7.13;;;;;;;;;;5083574;28;20505;-75
2022/05/24 06:32:00;;;;;;;17.30;6.80;;;;;;;;;;5083253;28;20048;-75
2022/05/24 06:34:26;;;;;;;13.40;6.78;;;;;;;;;;5056443;28;20830;-73
2022/05/24 06:36:52;;;;;;;14.70;6.65;;;;;;;;;;5074355;28;20554;-74
2022/05/24 06:39:19;;;;;;;15.85;6.75;;;;;;;;;;5075056;28;20049;-74
2022/05/24 06:41:48;;;;;;;16.10;6.57;;;;;;;;;;5081998;28;20056;-75
2022/05/24 06:44:14;;;;;;;15.40;6.63;;;;;;;;;;5081766;28;20377;-75
2022/05/24 06:46:41;;;;;;;16.33;6.57;;;;;;;;;;5079191;28;20139;-75
2022/05/24 06:49:08;;;;;;;11.25;5.78;;;;;;;;;;5082414;28;20074;-72
2022/05/24 06:51:35;;;;;;;15.77;7.03;;;;;;;;;;5063222;28;20513;-75
2022/05/24 06:54:01;;;;;;;17.95;6.82;;;;;;;;;;5073611;28;20059;-75
2022/05/24 06:56:28;;;;;;;12.57;6.15;;;;;;;;;;5062945;28;20142;-75
2022/05/24 07:02:25;;;;;;;12.95;5.78;;;;;;;;;;5058739;28;20373;-75
2022/05/24 07:04:26;;;;;;;9.77;5.65;;;;;;;;;;5082602;28;20433;-75
2022/05/24 07:06:52;;;;;;;12.20;5.63;;;;;;;;;;5057622;28;20053;-73
2022/05/24 07:09:18;;;;;;;12.60;5.30;;;;;;;;;;5060948;28;20052;-75
2022/05/24 07:11:45;;;;;;;12.07;5.03;;;;;;;;;;5058243;28;20850;-74
2022/05/24 07:14:11;;;;;;;11.50;5.13;;;;;;;;;;5044943;28;20071;-75
2022/05/24 07:16:37;;;;;;;11.93;4.93;;;;;;;;;;5059405;28;20056;-74
2022/05/24 07:19:05;;;;;;;13.15;4.35;;;;;;;;;;5080125;28;20052;-75
2022/05/24 07:21:32;;;;;;;10.82;4.95;;;;;;;;;;5077442;28;20222;-75
2022/05/24 07:23:58;;;;;;;8.27;4.95;;;;;;;;;;5062363;28;20049;-75
2022/05/24 07:26:25;;;;;;;8.45;4.38;;;;;;;;;;5052841;28;20580;-75
2022/05/24 07:29:13;;;;;;;8.80;4.63;;;;;;;;;;5081366;28;20063;-75
2022/05/24 07:31:39;;;;;;;8.10;4.80;;;;;;;;;;5059502;28;20584;-76
2022/05/24 07:34:09;;;;;;;8.23;4.40;;;;;;;;;;5057227;28;20082;-76
2022/05/24 07:36:52;;;;;;;10.23;4.60;;;;;;;;;;5062238;28;20056;-73
2022/05/24 07:39:18;;;;;;;12.85;5.05;;;;;;;;;;5085007;28;20098;-74
2022/05/24 07:47:37;;;;;;;8.23;3.72;;;;;;;;;;5081347;28;20053;-74
2022/05/24 07:50:04;;;;;;;8.38;3.38;;;;;;;;;;5063344;28;20063;-75
2022/05/24 07:52:30;;;;;;;8.70;4.03;;;;;;;;;;5044328;28;20948;-75
2022/05/24 07:54:57;;;;;;;7.38;3.50;;;;;;;;;;5074589;28;20130;-73
2022/05/24 07:57:23;;;;;;;10.80;3.65;;;;;;;;;;5080955;28;20542;-75
2022/05/24 07:59:51;;;;;;;9.82;3.95;;;;;;;;;;5082621;28;20455;-75
2022/05/24 08:02:18;;;;;;;9.18;3.92;;;;;;;;;;5072994;28;20527;-73
2022/05/24 08:04:44;;;;;;;11.35;3.60;;;;;;;;;;5075005;28;20065;-75
2022/05/24 08:07:12;;;;;;;8.27;3.20;;;;;;;;;;5059926;28;20052;-74
2022/05/24 08:09:39;;;;;;;6.38;2.60;;;;;;;;;;5074866;28;20111;-75
2022/05/24 08:12:06;;;;;;;6.43;2.60;;;;;;;;;;5049746;28;20515;-73
2022/05/24 08:14:32;;;;;;;7.60;2.35;;;;;;;;;;5049607;28;20056;-75
2022/05/24 08:16:58;;;;;;;6.47;2.30;;;;;;;;;;5057526;28;20842;-76
2022/05/24 08:19:26;;;;;;;9.07;2.20;;;;;;;;;;5051369;28;20524;-72
2022/05/24 08:21:52;;;;;;;7.35;2.08;;;;;;;;;;5072887;28;20147;-73
2022/05/24 08:24:18;;;;;;;6.15;1.83;;;;;;;;;;5078755;28;20045;-75
2022/05/24 08:26:45;;;;;;;7.68;1.90;;;;;;;;;;5068734;28;20140;-73
2022/05/24 08:29:11;;;;;;;7.30;2.05;;;;;;;;;;5066027;28;21967;-75
2022/05/24 08:31:37;;;;;;;6.13;1.70;;;;;;;;;;5057632;28;20161;-74
2022/05/24 08:34:04;;;;;;;6.40;1.70;;;;;;;;;;5066493;28;20060;-76
2022/05/24 08:36:30;;;;;;;5.53;1.75;;;;;;;;;;5060763;28;20053;-74
2022/05/24 08:38:56;;;;;;;7.80;2.10;;;;;;;;;;5057370;28;20060;-73
2022/05/24 08:41:30;;;;;;;5.03;1.45;;;;;;;;;;5071773;28;20263;-75
2022/05/24 08:49:54;;;;;;;4.95;1.75;;;;;;;;;;5081715;28;20052;-74
2022/05/24 08:52:21;;;;;;;7.05;1.92;;;;;;;;;;5074280;28;20102;-75
2022/05/24 08:54:48;;;;;;;8.55;2.00;;;;;;;;;;5072718;28;20105;-74
2022/05/24 08:57:31;;;;;;;5.57;1.92;;;;;;;;;;5070852;28;20848;-74
2022/05/24 09:00:04;;;;;;;11.60;2.67;;;;;;;;;;5083191;28;20175;-74
2022/05/24 09:02:30;;;;;;;6.07;1.00;;;;;;;;;;5081802;28;20064;-74
2022/05/24 09:04:57;;;;;;;3.13;0.95;;;;;;;;;;5073320;28;20056;-74
2022/05/24 09:07:30;;;;;;;4.95;0.88;;;;;;;;;;5077889;28;20128;-74
2022/05/24 09:10:06;;;;;;;3.25;0.68;;;;;;;;;;5054896;28;20052;-74
2022/05/24 09:12:40;;;;;;;1.90;0.70;;;;;;;;;;5076563;28;20072;-72
2022/05/24 09:15:19;;;;;;;3.00;0.80;;;;;;;;;;5074515;28;20139;-72
2022/05/24 09:17:47;;;;;;;4.78;0.82;;;;;;;;;;5063356;28;20507;-72
2022/05/24 09:20:29;;;;;;;4.43;0.90;;;;;;;;;;5075030;28;20137;-74
2022/05/24 09:23:11;;;;;;;2.78;1.00;;;;;;;;;;5078831;28;20064;-73
2022/05/24 09:25:51;;;;;;;2.85;1.00;;;;;;;;;;5071971;28;20053;-73
2022/05/24 09:28:17;;;;;;;3.88;1.40;;;;;;;;;;5082926;28;20135;-72
2022/05/24 09:30:45;;;;;;;5.07;1.50;;;;;;;;;;5074929;28;20136;-73
2022/05/24 09:33:19;;;;;;;5.07;2.05;;;;;;;;;;5060759;28;20548;-75
2022/05/24 09:35:48;;;;;;;4.20;2.13;;;;;;;;;;5075810;28;20052;-75
2022/05/24 09:38:17;;;;;;;7.18;2.20;;;;;;;;;;5061361;28;20140;-74
2022/05/24 09:40:44;;;;;;;6.55;2.42;;;;;;;;;;5059580;28;20045;-74
2022/05/24 09:43:18;;;;;;;9.82;2.30;;;;;;;;;;5074315;28;20172;-74
2022/05/24 09:45:46;;;;;;;4.25;1.40;;;;;;;;;;5081481;28;20052;-73
2022/05/24 09:48:21;;;;;;;3.95;1.30;;;;;;;;;;5079102;28;20052;-73
2022/05/24 09:50:52;;;;;;;3.65;0.95;;;;;;;;;;5073089;28;20057;-73
2022/05/24 09:53:19;;;;;;;3.47;0.90;;;;;;;;;;5080643;28;20095;-73
2022/05/24 09:55:50;;;;;;;5.22;1.23;;;;;;;;;;5071112;28;20140;-74
2022/05/24 09:58:17;;;;;;;4.72;1.10;;;;;;;;;;5077466;28;20136;-73
2022/05/24 10:01:04;;;;;;;3.15;1.05;;;;;;;;;;5049086;28;20057;-73
2022/05/24 10:03:33;;;;;;;4.30;1.30;;;;;;;;;;5084106;28;20520;-73
2022/05/24 10:06:11;;;;;;;4.68;1.20;;;;;;;;;;5076466;28;20143;-74
2022/05/24 10:08:40;;;;;;;3.97;1.10;;;;;;;;;;5077354;28;20048;-73
2022/05/24 10:11:12;;;;;;;4.38;1.30;;;;;;;;;;5073437;28;20052;-74
2022/05/24 10:13:50;;;;;;;4.53;1.40;;;;;;;;;;5082591;28;20163;-74
2022/05/24 10:16:20;;;;;;;4.47;1.20;;;;;;;;;;5064935;28;20147;-74
2022/05/24 10:18:56;;;;;;;3.63;1.35;;;;;;;;;;5082408;28;20076;-73
2022/05/24 10:21:29;;;;;;;3.92;1.50;;;;;;;;;;5073732;28;20090;-72
2022/05/24 10:24:04;;;;;;;3.78;1.50;;;;;;;;;;5058880;28;20049;-73
2022/05/24 10:26:39;;;;;;;4.18;1.50;;;;;;;;;;5075709;28;20052;-74
2022/05/24 10:29:33;;;;;;;5.95;1.27;;;;;;;;;;5074557;28;20052;-74
2022/05/24 10:38:20;;;;;;;3.67;0.80;;;;;;;;;;5076026;28;20048;-74
2022/05/24 10:40:46;;;;;;;3.67;0.80;;;;;;;;;;5074317;28;20271;-74
2022/05/24 10:43:15;;;;;;;1.85;0.70;;;;;;;;;;5078637;28;20052;-73
2022/05/24 10:45:50;;;;;;;2.13;0.70;;;;;;;;;;5074026;28;20091;-75
2022/05/24 10:48:22;;;;;;;1.80;0.60;;;;;;;;;;5081939;28;20523;-73
2022/05/24 10:50:55;;;;;;;2.42;0.70;;;;;;;;;;5071391;28;20049;-74
2022/05/24 10:53:34;;;;;;;2.35;0.60;;;;;;;;;;5066562;28;20078;-74
2022/05/24 10:56:06;;;;;;;2.03;0.80;;;;;;;;;;5055436;28;20153;-73
2022/05/24 10:58:34;;;;;;;4.50;1.00;;;;;;;;;;5078115;28;20063;-73
2022/05/24 11:01:06;;;;;;;2.15;0.85;;;;;;;;;;5081256;28;20152;-74
2022/05/24 11:03:34;;;;;;;4.47;1.17;;;;;;;;;;5080993;28;20050;-74
2022/05/24 11:06:17;;;;;;;3.40;1.20;;;;;;;;;;5080448;28;20064;-73
2022/05/24 11:08:49;;;;;;;5.78;1.80;;;;;;;;;;5075619;28;20067;-73
2022/05/24 11:11:25;;;;;;;5.28;2.00;;;;;;;;;;5076234;28;20513;-74
2022/05/24 11:13:57;;;;;;;6.35;1.95;;;;;;;;;;5070532;28;20104;-73
2022/05/24 11:16:31;;;;;;;7.38;1.90;;;;;;;;;;5062244;28;20053;-75
2022/05/24 11:18:57;;;;;;;4.88;1.50;;;;;;;;;;5077455;28;20369;-75
2022/05/24 11:21:30;;;;;;;4.68;1.60;;;;;;;;;;5080664;28;20584;-73
2022/05/24 11:24:02;;;;;;;5.95;1.50;;;;;;;;;;5063631;28;20445;-74
2022/05/24 11:26:31;;;;;;;4.97;1.70;;;;;;;;;;5054278;28;20053;-74
2022/05/24 11:29:10;;;;;;;6.82;1.95;;;;;;;;;;5081869;28;20048;-72
2022/05/24 11:31:40;;;;;;;4.45;1.67;;;;;;;;;;5074715;28;20063;-74
2022/05/24 11:34:15;;;;;;;6.95;2.10;;;;;;;;;;5057407;28;20590;-74
2022/05/24 11:36:44;;;;;;;7.45;1.88;;;;;;;;;;5082268;28;20060;-75
2022/05/24 11:39:14;;;;;;;4.72;1.80;;;;;;;;;;5060997;28;20338;-74
2022/05/24 11:41:40;;;;;;;4.72;1.88;;;;;;;;;;5070944;28;20503;-73
2022/05/24 11:44:26;;;;;;;5.88;2.03;;;;;;;;;;5074879;28;20057;-74
2022/05/24 11:46:52;;;;;;;5.18;2.05;;;;;;;;;;5051134;28;20071;-73
2022/05/24 11:49:19;;;;;;;5.90;1.70;;;;;;;;;;5078552;28;20053;-72
2022/05/24 11:51:46;;;;;;;4.78;2.03;;;;;;;;;;5078249;28;20052;-74
2022/05/24 11:54:15;;;;;;;5.55;1.88;;;;;;;;;;5072370;28;20148;-74
2022/05/24 11:57:07;;;;;;;6.90;1.85;;;;;;;;;;5080565;28;20057;-74
2022/05/24 11:59:39;;;;;;;6.28;2.10;;;;;;;;;;5079543;28;20147;-74
2022/05/24 12:02:22;;;;;;;5.07;1.55;;;;;;;;;;5074074;28;20509;-73
2022/05/24 12:08:00;;;;;;;3.78;1.73;;;;;;;;;;5076827;28;20057;-74
2022/05/24 12:10:34;;;;;;;5.88;2.05;;;;;;;;;;5064347;28;20076;-73
2022/05/24 12:13:03;;;;;;;4.05;1.90;;;;;;;;;;5080663;28;20044;-74
2022/05/24 12:15:30;;;;;;;6.03;1.75;;;;;;;;;;5060269;28;20056;-74
2022/05/24 12:17:59;;;;;;;5.28;2.13;;;;;;;;;;5057161;28;20079;-74
2022/05/24 12:20:35;;;;;;;4.60;1.97;;;;;;;;;;5046782;28;20491;-74
2022/05/24 12:23:04;;;;;;;5.88;1.95;;;;;;;;;;5070339;28;20084;-74
2022/05/24 12:26:01;;;;;;;7.95;2.20;;;;;;;;;;5060901;28;20053;-75
2022/05/24 12:28:27;;;;;;;7.22;1.90;;;;;;;;;;5071597;28;20095;-74
2022/05/24 12:30:57;;;;;;;6.70;2.08;;;;;;;;;;5060018;28;20107;-75
2022/05/24 12:33:37;;;;;;;6.93;2.20;;;;;;;;;;5048223;28;20056;-74
2022/05/24 12:36:03;;;;;;;;;;;;;;;;;;5077855;28;20131;-74
2022/05/24 12:38:30;;;;;;;6.07;1.60;;;;;;;;;;5047952;28;45173;-75
2022/05/24 12:41:05;;;;;;;5.07;1.35;;;;;;;;;;5070336;28;20057;-73
2022/05/24 12:43:48;;;;;;;5.43;1.25;;;;;;;;;;5073077;28;20472;-74
2022/05/24 12:46:14;;;;;;;7.18;1.77;;;;;;;;;;5058612;28;20140;-75
2022/05/24 12:48:41;;;;;;;4.47;1.23;;;;;;;;;;5067383;28;20057;-74
2022/05/24 12:51:08;;;;;;;4.75;1.55;;;;;;;;;;5071991;28;20063;-74
2022/05/24 12:53:36;;;;;;;5.85;1.50;;;;;;;;;;5066562;28;20068;-75
2022/05/24 12:56:04;;;;;;;4.35;1.17;;;;;;;;;;5079758;28;20687;-76
2022/05/24 12:58:32;;;;;;;6.38;1.65;;;;;;;;;;5063379;28;20049;-75
2022/05/24 13:01:13;;;;;;;5.00;1.40;;;;;;;;;;5072171;28;20528;-75
2022/05/24 13:03:58;;;;;;;3.95;1.60;;;;;;;;;;5056934;28;20055;-74
2022/05/24 13:06:26;;;;;;;4.97;1.42;;;;;;;;;;5066730;28;20049;-74
2022/05/24 13:09:11;;;;;;;4.85;1.23;;;;;;;;;;5072981;28;20075;-75
2022/05/24 13:11:38;;;;;;;6.80;1.70;;;;;;;;;;5051765;28;20172;-76
2022/05/24 13:14:09;;;;;;;4.75;1.40;;;;;;;;;;5059266;28;20081;-74
2022/05/24 13:16:41;;;;;;;4.65;1.20;;;;;;;;;;5052998;28;20886;-75
2022/05/24 13:19:08;;;;;;;3.33;1.20;;;;;;;;;;5069695;28;20106;-74
2022/05/24 13:21:35;;;;;;;4.38;1.23;;;;;;;;;;5065728;28;20052;-75
2022/05/24 13:24:09;;;;;;;5.70;1.30;;;;;;;;;;5072478;28;20049;-73
2022/05/24 13:26:36;;;;;;;6.18;1.10;;;;;;;;;;5066265;28;20147;-75
2022/05/24 13:33:33;;;;;;;3.72;1.17;;;;;;;;;;5080875;28;20056;-74
2022/05/24 13:35:02;;;;;;;4.72;1.30;;;;;;;;;;5071984;28;20106;-74
2022/05/24 13:37:47;;;;;;;3.38;1.20;;;;;;;;;;5065779;28;20080;-75
2022/05/24 13:40:14;;;;;;;5.88;1.30;;;;;;;;;;5078894;28;20139;-74
2022/05/24 13:42:54;;;;;;;4.45;1.25;;;;;;;;;;5073320;28;20140;-76
2022/05/24 13:45:22;;;;;;;2.58;1.02;;;;;;;;;;5077258;28;20051;-75
2022/05/24 13:47:54;;;;;;;3.08;0.82;;;;;;;;;;5061245;28;20048;-74
2022/05/24 13:50:21;;;;;;;3.00;1.00;;;;;;;;;;5060027;28;20052;-74
2022/05/24 13:52:50;;;;;;;2.38;0.73;;;;;;;;;;5074658;28;20059;-75
2022/05/24 13:55:22;;;;;;;3.30;0.90;;;;;;;;;;5069282;28;20056;-75
2022/05/24 13:57:54;;;;;;;3.03;0.70;;;;;;;;;;5062314;28;20509;-75
2022/05/24 14:00:21;;;;;;;4.05;0.80;;;;;;;;;;5071092;28;20052;-75
2022/05/24 14:02:50;;;;;;;2.63;1.00;;;;;;;;;;5080485;28;20858;-75
2022/05/24 14:05:31;;;;;;;3.95;0.80;;;;;;;;;;5076024;28;20191;-75
2022/05/24 14:07:58;;;;;;;3.80;0.90;;;;;;;;;;5070359;28;20099;-75
2022/05/24 14:10:25;;;;;;;3.13;1.00;;;;;;;;;;5075671;28;20635;-75
2022/05/24 14:12:51;;;;;;;3.20;0.93;;;;;;;;;;5073015;28;20147;-75
2022/05/24 14:15:17;;;;;;;4.32;0.80;;;;;;;;;;5063702;28;20165;-75
2022/05/24 14:17:44;;;;;;;2.97;0.90;;;;;;;;;;5081474;28;20049;-75
2022/05/24 14:20:10;;;;;;;3.95;0.80;;;;;;;;;;5078162;28;20083;-75
2022/05/24 14:22:37;;;;;;;2.88;0.90;;;;;;;;;;5074272;28;20539;-75
2022/05/24 14:25:03;;;;;;;2.47;0.80;;;;;;;;;;5072575;28;20056;-76
2022/05/24 14:27:29;;;;;;;2.05;0.77;;;;;;;;;;5058320;28;20053;-75
2022/05/24 14:29:56;;;;;;;3.25;0.80;;;;;;;;;;5078779;28;20368;-75
2022/05/24 14:32:24;;;;;;;5.03;1.10;;;;;;;;;;5060217;28;20143;-75
2022/05/24 14:34:50;;;;;;;3.83;1.00;;;;;;;;;;5080553;28;20052;-75
2022/05/24 14:37:18;;;;;;;3.15;1.00;;;;;;;;;;5076717;28;20059;-75
2022/05/24 14:39:45;;;;;;;3.65;0.93;;;;;;;;;;5083070;28;20052;-75
2022/05/24 14:42:12;;;;;;;3.20;0.70;;;;;;;;;;5051778;28;20052;-75
2022/05/24 14:44:38;;;;;;;2.50;0.85;;;;;;;;;;5074156;28;20052;-75
2022/05/24 14:47:05;;;;;;;2.75;0.80;;;;;;;;;;5067340;28;20056;-75
2022/05/24 14:49:31;;;;;;;2.35;0.90;;;;;;;;;;5074967;28;20607;-75
2022/05/24 14:52:01;;;;;;;3.25;0.98;;;;;;;;;;5066468;28;20053;-75
2022/05/24 14:54:28;;;;;;;3.08;0.93;;;;;;;;;;5077274;28;20586;-75
2022/05/24 14:56:54;;;;;;;3.75;1.10;;;;;;;;;;5066473;28;20090;-74
2022/05/24 14:59:22;;;;;;;4.90;0.80;;;;;;;;;;5082138;28;20053;-75
2022/05/24 15:01:49;;;;;;;3.40;0.80;;;;;;;;;;5069323;28;20147;-74
2022/05/24 15:04:15;;;;;;;2.63;0.80;;;;;;;;;;5078732;28;20066;-75
2022/05/24 15:06:43;;;;;;;3.38;1.10;;;;;;;;;;5082950;28;20097;-75
2022/05/24 15:17:34;;;;;;;6.03;1.60;;;;;;;;;;5076404;28;20136;-75
2022/05/24 15:20:00;;;;;;;4.90;1.63;;;;;;;;;;5077572;28;20052;-74
2022/05/24 15:22:27;;;;;;;7.53;1.70;;;;;;;;;;5078649;28;20070;-73
2022/05/24 15:24:53;;;;;;;5.20;1.50;;;;;;;;;;5072081;28;20063;-72
2022/05/24 15:27:19;;;;;;;4.53;1.50;;;;;;;;;;5074170;28;20155;-73
2022/05/24 15:29:46;;;;;;;5.82;1.52;;;;;;;;;;5082228;28;20079;-73
2022/05/24 15:32:14;;;;;;;3.97;1.63;;;;;;;;;;5077387;28;20052;-75
2022/05/24 15:34:40;;;;;;;3.10;1.23;;;;;;;;;;5078046;28;20174;-73
2022/05/24 15:37:08;;;;;;;4.90;1.48;;;;;;;;;;5076374;28;20141;-73
2022/05/24 15:39:34;;;;;;;2.90;1.17;;;;;;;;;;5079536;28;20487;-73
2022/05/24 15:42:01;;;;;;;4.65;1.25;;;;;;;;;;5079522;28;20063;-73
2022/05/24 15:44:35;;;;;;;3.63;1.20;;;;;;;;;;5079033;28;20053;-74